»·PEaware :: N900EH KHQM-KJAC

N900EH :: KHQM-KJAC

FLIGHT INFORMATION

Flight Status: Arrived
Operator: Privately registered:
United States
More flights under this callsign
Pilot: Andrew G. (414)
Aircraft: SOCATA TBM-900
(TBM9)
More flights by this aircraft type
Origin: KHQM Bowerman
United States
Destination: KJAC Jackson Hole
United States
More flights between these airports :: More routes between these airports
Route: HIGDA V204 YKM V298 SUNED Q152 LEZLE Q150 LAMON
File this flight plan on PilotEdge
Remarks: RMK / SIMBRIEF
Altitude:
(Current/Filed)
29,000ft
Speed:
(Current/Filed)
318kts
Departed: 26-Aug-20 10:34 PM
Arrived: 27-Aug-20 12:41 AM
Distance/Time
Traveled:
592nm/2:07
Distance/Time
To Go:
Arrived

Flight Plot

Page will automatically refresh every two minutes.

Flight plan parsing failed; only flown route is shown


Map Options




Map Legend


Flown Route
Filed Route
Departure Airport
Arrival Airport
Navaid (VOR, NDB)
Fix

Horizontal Profiles

Position Reports

Time Latitude Longitude Heading Altitude Ground
Speed
26-Aug-20 22:17 46.973681 -123.927367 122 26ft 0kts
26-Aug-20 22:18 46.973681 -123.927367 122 26ft 0kts
26-Aug-20 22:20 46.973681 -123.927367 122 26ft 0kts
26-Aug-20 22:21 46.973681 -123.927367 122 26ft 0kts
26-Aug-20 22:22 46.973681 -123.927367 122 26ft 0kts
26-Aug-20 22:23 46.973681 -123.927367 122 26ft 0kts
26-Aug-20 22:24 46.973681 -123.927367 122 26ft 0kts
26-Aug-20 22:25 46.973681 -123.927367 122 26ft 0kts
26-Aug-20 22:26 46.973681 -123.927367 122 26ft 0kts
26-Aug-20 22:27 46.973681 -123.927367 122 26ft 0kts
26-Aug-20 22:28 46.973681 -123.927367 122 26ft 0kts
26-Aug-20 22:29 46.973681 -123.927367 122 26ft 0kts
26-Aug-20 22:30 46.973128 -123.926972 167 26ft 0kts
26-Aug-20 22:31 46.973128 -123.926972 167 26ft 0kts
26-Aug-20 22:32 46.972327 -123.927252 259 25ft 0kts
26-Aug-20 22:33 46.972289 -123.927600 261 24ft 11kts
26-Aug-20 22:34 46.968512 -123.962467 265 953ft 123kts
26-Aug-20 22:35 46.953188 -124.010518 199 2589ft 170kts
26-Aug-20 22:36 46.933084 -123.962579 78 4080ft 164kts
26-Aug-20 22:37 46.937757 -123.897894 80 5878ft 167kts
26-Aug-20 22:38 46.942051 -123.828027 80 7480ft 180kts
26-Aug-20 22:38 46.945056 -123.766803 83 9067ft 184kts
26-Aug-20 22:40 46.952351 -123.677771 83 10975ft 197kts
26-Aug-20 22:41 46.957507 -123.594651 83 11960ft 218kts
26-Aug-20 22:41 46.961210 -123.520188 87 12929ft 222kts
26-Aug-20 22:42 46.962911 -123.429090 87 14093ft 227kts
26-Aug-20 22:44 46.964933 -123.319291 88 15417ft 234kts
26-Aug-20 22:45 46.966617 -123.223328 88 16421ft 238kts
26-Aug-20 22:45 46.967985 -123.141240 88 17330ft 244kts
26-Aug-20 22:46 46.969576 -123.041149 88 18364ft 249kts
26-Aug-20 22:47 46.971109 -122.938906 88 19452ft 254kts
26-Aug-20 22:48 46.952948 -122.840235 116 20647ft 256kts
26-Aug-20 22:49 46.923527 -122.744249 116 21751ft 261kts
26-Aug-20 22:50 46.893514 -122.646441 117 22785ft 266kts
26-Aug-20 22:51 46.862846 -122.546990 117 23869ft 270kts
26-Aug-20 22:52 46.831695 -122.446743 117 24974ft 275kts
26-Aug-20 22:53 46.799835 -122.344419 118 25997ft 279kts
26-Aug-20 22:54 46.767408 -122.240537 118 26997ft 283kts
26-Aug-20 22:55 46.734658 -122.136043 118 27965ft 287kts
26-Aug-20 22:56 46.701142 -122.029642 118 28841ft 290kts
26-Aug-20 22:57 46.666347 -121.919607 118 29032ft 311kts
26-Aug-20 22:58 46.629189 -121.802572 118 29023ft 323kts
26-Aug-20 22:59 46.591053 -121.683035 118 29021ft 327kts
26-Aug-20 23:00 46.577952 -121.552580 90 29022ft 336kts
26-Aug-20 23:01 46.577861 -121.416470 91 29021ft 337kts
26-Aug-20 23:02 46.577293 -121.280016 92 29017ft 337kts
26-Aug-20 23:03 46.576560 -121.143858 92 29006ft 337kts
26-Aug-20 23:04 46.575667 -121.008034 92 28965ft 338kts
26-Aug-20 23:05 46.574606 -120.871251 92 28945ft 337kts
26-Aug-20 23:06 46.573385 -120.734819 92 28946ft 337kts
26-Aug-20 23:07 46.572002 -120.599111 92 28947ft 336kts
26-Aug-20 23:08 46.567800 -120.463394 102 28946ft 333kts
26-Aug-20 23:09 46.519946 -120.354594 133 28948ft 322kts
26-Aug-20 23:10 46.462908 -120.254741 133 28944ft 321kts
26-Aug-20 23:11 46.406196 -120.154938 132 28928ft 321kts
26-Aug-20 23:12 46.349306 -120.055185 132 28906ft 321kts
26-Aug-20 23:13 46.297242 -119.950509 112 28887ft 326kts
26-Aug-20 23:14 46.288838 -119.819483 94 28890ft 330kts
26-Aug-20 23:15 46.283151 -119.686794 95 28890ft 330kts
26-Aug-20 23:16 46.277231 -119.554268 95 28891ft 331kts
26-Aug-20 23:17 46.271146 -119.421607 95 28891ft 331kts
26-Aug-20 23:18 46.264899 -119.288774 96 28888ft 332kts
26-Aug-20 23:19 46.258454 -119.155055 96 28889ft 332kts
26-Aug-20 23:20 46.251898 -119.022181 96 28889ft 332kts
26-Aug-20 23:21 46.245134 -118.888459 96 28894ft 333kts
26-Aug-20 23:22 46.238244 -118.755270 97 28899ft 333kts
26-Aug-20 23:23 46.231183 -118.621651 97 28901ft 334kts
26-Aug-20 23:24 46.223958 -118.488248 97 28903ft 334kts
26-Aug-20 23:25 46.216577 -118.354570 97 28905ft 334kts
26-Aug-20 23:26 46.209018 -118.220688 98 28904ft 334kts
26-Aug-20 23:27 46.201291 -118.086674 98 28906ft 334kts
26-Aug-20 23:28 46.193467 -117.953612 98 28919ft 333kts
26-Aug-20 23:29 46.185475 -117.820380 98 28934ft 333kts
26-Aug-20 23:30 46.177323 -117.687089 98 28937ft 334kts
26-Aug-20 23:31 46.169017 -117.553723 98 28938ft 334kts
26-Aug-20 23:32 46.160536 -117.420365 98 28941ft 334kts
26-Aug-20 23:33 46.151900 -117.286905 99 28938ft 334kts
26-Aug-20 23:34 46.141246 -117.154276 111 28923ft 328kts
26-Aug-20 23:35 46.103683 -117.036480 120 28953ft 323kts
26-Aug-20 23:36 46.065077 -116.920061 120 28982ft 322kts
26-Aug-20 23:37 46.026533 -116.804274 121 28989ft 322kts
26-Aug-20 23:38 45.987717 -116.688102 121 28988ft 321kts
26-Aug-20 23:39 45.948837 -116.572456 121 28988ft 321kts
26-Aug-20 23:40 45.910043 -116.457502 121 28989ft 320kts
26-Aug-20 23:41 45.871037 -116.342366 122 28995ft 321kts
26-Aug-20 23:42 45.831890 -116.227325 122 28992ft 320kts
26-Aug-20 23:43 45.792787 -116.112931 122 28984ft 320kts
26-Aug-20 23:44 45.753564 -115.998673 122 28954ft 321kts
26-Aug-20 23:45 45.713996 -115.883906 122 28928ft 321kts
26-Aug-20 23:46 45.674338 -115.769357 122 28929ft 321kts
26-Aug-20 23:47 45.634634 -115.655183 122 28929ft 321kts
26-Aug-20 23:48 45.594748 -115.540982 122 28930ft 322kts
26-Aug-20 23:49 45.554616 -115.426532 123 28950ft 322kts
26-Aug-20 23:50 45.514170 -115.311728 124 28966ft 323kts
26-Aug-20 23:51 45.473834 -115.197682 124 28987ft 323kts
26-Aug-20 23:52 45.433448 -115.084022 124 29011ft 323kts
26-Aug-20 23:53 45.392712 -114.969850 124 29016ft 324kts
26-Aug-20 23:54 45.351617 -114.855139 124 29018ft 325kts
26-Aug-20 23:55 45.310400 -114.740578 124 29018ft 326kts
26-Aug-20 23:56 45.268889 -114.625675 124 29018ft 327kts
26-Aug-20 23:57 45.227193 -114.510782 125 29019ft 328kts
26-Aug-20 23:58 45.185551 -114.396501 125 29020ft 328kts
26-Aug-20 23:59 45.143428 -114.281381 125 29012ft 327kts
27-Aug-20 00:00 45.101549 -114.167413 126 29019ft 326kts
27-Aug-20 00:01 45.065608 -114.047906 116 29032ft 334kts
27-Aug-20 00:02 45.036211 -113.923170 116 29038ft 335kts
27-Aug-20 00:03 45.006510 -113.797745 115 29043ft 337kts
27-Aug-20 00:04 44.976595 -113.672094 115 29050ft 338kts
27-Aug-20 00:05 44.946501 -113.546412 115 29054ft 339kts
27-Aug-20 00:06 44.916090 -113.420136 115 29055ft 340kts
27-Aug-20 00:07 44.885504 -113.293826 116 29055ft 340kts
27-Aug-20 00:08 44.854678 -113.167262 116 29056ft 341kts
27-Aug-20 00:09 44.823755 -113.041001 116 29057ft 342kts
27-Aug-20 00:10 44.792464 -112.913965 116 29065ft 342kts
27-Aug-20 00:11 44.761264 -112.787958 116 29076ft 343kts
27-Aug-20 00:12 44.729607 -112.660837 116 29077ft 343kts
27-Aug-20 00:13 44.697766 -112.533744 116 29078ft 344kts
27-Aug-20 00:14 44.665795 -112.406703 116 29079ft 344kts
27-Aug-20 00:15 44.633694 -112.279893 116 29071ft 343kts
27-Aug-20 00:16 44.601595 -112.153806 116 29072ft 343kts
27-Aug-20 00:17 44.569360 -112.027869 116 29087ft 342kts
27-Aug-20 00:18 44.536978 -111.902044 116 29141ft 342kts
27-Aug-20 00:19 44.504566 -111.776745 116 29175ft 342kts
27-Aug-20 00:20 44.471895 -111.651109 116 29176ft 343kts
27-Aug-20 00:21 44.439201 -111.526097 116 29171ft 344kts
27-Aug-20 00:22 44.405847 -111.399232 116 29165ft 345kts
27-Aug-20 00:24 44.371006 -111.267496 115 27598ft 377kts
27-Aug-20 00:25 44.334768 -111.131073 115 25579ft 370kts
27-Aug-20 00:26 44.274169 -111.023380 128 23499ft 357kts
27-Aug-20 00:27 44.249659 -110.889636 101 21895ft 356kts
27-Aug-20 00:28 44.235547 -110.754300 101 20386ft 349kts
27-Aug-20 00:29 44.215179 -110.624838 123 18849ft 332kts
27-Aug-20 00:30 44.149633 -110.555263 170 17017ft 279kts
27-Aug-20 00:31 44.076860 -110.532317 170 15101ft 261kts
27-Aug-20 00:32 44.007643 -110.530108 202 13413ft 242kts
27-Aug-20 00:33 43.950904 -110.573365 204 12381ft 228kts
27-Aug-20 00:34 43.890383 -110.598882 198 11375ft 227kts
27-Aug-20 00:35 43.833092 -110.627989 198 10924ft 209kts
27-Aug-20 00:36 43.775473 -110.655937 199 9745ft 220kts
27-Aug-20 00:37 43.722448 -110.681657 199 8643ft 174kts
27-Aug-20 00:38 43.683944 -110.700495 201 7881ft 141kts
27-Aug-20 00:39 43.649834 -110.717102 199 7190ft 112kts
27-Aug-20 00:39 43.625942 -110.728693 198 6737ft 108kts
27-Aug-20 00:41 43.604252 -110.739221 171 6420ft 5kts
27-Aug-20 00:42 43.602715 -110.738408 197 6419ft 10kts
27-Aug-20 00:42 43.600413 -110.739536 200 6415ft 11kts
27-Aug-20 00:44 43.599407 -110.738789 103 6414ft 0kts
27-Aug-20 00:44 43.599407 -110.738789 103 6414ft 0kts
27-Aug-20 00:45 43.599407 -110.738790 106 6414ft 0kts
27-Aug-20 00:47 43.599407 -110.738790 106 6414ft 0kts
27-Aug-20 00:47 43.599407 -110.738790 106 6414ft 0kts
27-Aug-20 00:48 43.599407 -110.738790 106 6414ft 0kts
27-Aug-20 00:49 43.599407 -110.738790 106 6414ft 0kts
27-Aug-20 00:50 43.599407 -110.738790 106 6414ft 0kts
27-Aug-20 00:51 43.599407 -110.738790 106 6414ft 0kts
27-Aug-20 00:52 43.599407 -110.738790 106 6414ft 0kts
27-Aug-20 00:53 43.599407 -110.738790 106 6414ft 0kts
27-Aug-20 00:54 43.599407 -110.738790 106 6414ft 0kts

Navigation Log

Ident Type
Flight plan parsing failed, navigation log unavailable